Flight Track Log - Related Links

Times and Time Zones

All times are in EDT time to prevent confusion due to time zone crossing. See the SKW6345 flight status page for this flight to view local times or setup timezone preferences in your user account.

Time Position Orientation Groundspeed Altitude Reporting Facility
EDT Latitude Longitude Course Direction KTS MPH feet Rate Location/Type
Sun 11:33:31 AM 37.6667 -122.3500 38° Northeast 180 207 1,800  Level Northern Cal TRACON
Sun 11:34:31 AM 37.7167 -122.3000 38° Northeast 230 265 4,100 2,300 Climbing Northern Cal TRACON
Sun 11:35:31 AM 37.7833 -122.2833 11° North 263 303 6,400 2,200 Climbing Northern Cal TRACON
Sun 11:36:00 AM 37.6981 -122.2853 38° Northeast  Level FlightAware Approximate
Sun 11:36:31 AM 37.8667 -122.2667 North 278 320 8,500  Level Northern Cal TRACON
Sun 11:37:00 AM 37.8043 -122.1790 38° Northeast  Level FlightAware Approximate
Sun 11:37:13 AM 37.8903 -122.2222 56° Northeast 280 322 9,900  Level Oakland Center
Sun 11:38:00 AM 37.9106 -122.0727 38° Northeast  Level FlightAware Approximate
Sun 11:38:14 AM 37.9522 -122.1506 42° Northeast 300 345 11,500  Level Oakland Center
Sun 11:39:15 AM 38.0308 -122.0550 44° Northeast 327 376 13,700 1,967 Climbing Oakland Center
Sun 11:40:16 AM 38.0997 -121.9722 43° Northeast 341 392 15,500 1,756 Climbing Oakland Center
Sun 11:41:18 AM 38.1706 -121.8858 44° Northeast 353 406 17,300 1,463 Climbing Oakland Center
Sun 11:42:19 AM 38.2422 -121.7972 44° Northeast 362 417 18,500 1,082 Climbing Oakland Center
Sun 11:43:20 AM 38.3200 -121.7061 43° Northeast 380 437 19,500 1,180 Climbing Oakland Center
Sun 11:44:21 AM 38.4003 -121.6108 43° Northeast 396 456 20,900 1,366 Climbing Oakland Center
Sun 11:45:23 AM 38.4861 -121.5106 42° Northeast 399 459 22,300 1,122 Climbing Oakland Center
Sun 11:46:24 AM 38.5631 -121.4169 44° Northeast 403 464 23,200 934 Climbing Oakland Center
Sun 11:47:25 AM 38.6464 -121.3186 43° Northeast 410 472 24,200 1,082 Climbing Oakland Center
Sun 11:48:26 AM 38.7419 -121.2039 43° Northeast 416 479 25,400 1,024 Climbing Oakland Center
Sun 11:49:28 AM 38.8256 -121.1033 43° Northeast 414 476 26,300 732 Climbing Oakland Center
Sun 11:50:29 AM 38.9106 -121.0000 43° Northeast 417 480 26,900 590 Climbing Oakland Center
Sun 11:51:30 AM 38.9972 -120.8922 44° Northeast 430 495 27,500 590 Climbing Oakland Center
Sun 11:52:31 AM 39.0853 -120.7844 44° Northeast 436 502 28,100 585 Climbing Oakland Center
Sun 11:53:33 AM 39.1742 -120.6764 43° Northeast 439 505 28,700 683 Climbing Oakland Center
Sun 11:54:34 AM 39.2814 -120.5442 44° Northeast 443 510 29,500 689 Climbing Oakland Center
Sun 11:55:35 AM 39.3706 -120.4344 44° Northeast 442 509 30,100 541 Climbing Oakland Center
Sun 11:56:36 AM 39.4606 -120.3222 44° Northeast 446 513 30,600 439 Climbing Oakland Center
Sun 11:57:38 AM 39.5517 -120.2097 44° Northeast 452 520 31,000 390 Climbing Oakland Center
Sun 11:58:39 AM 39.6364 -120.1042 44° Northeast 455 524 31,400 443 Climbing Oakland Center
Sun 11:59:40 AM 39.7300 -119.9894 43° Northeast 460 529 31,900 492 Climbing Oakland Center
Sun 12:00:41 PM 39.8183 -119.8744 45° Northeast 451 519 32,400 537 Climbing Oakland Center
Sun 12:01:43 PM 39.9278 -119.7369 44° Northeast 453 521 33,000 293 Climbing Oakland Center
Sun 12:02:44 PM 40.0211 -119.6203 44° Northeast 460 529 33,000  Level Oakland Center
Sun 12:03:45 PM 40.1142 -119.5011 44° Northeast 463 533 33,000  Level Oakland Center
Sun 12:04:46 PM 40.2072 -119.3803 45° Northeast 468 539 33,000  Level Oakland Center
Sun 12:05:48 PM 40.3028 -119.2586 44° Northeast 475 547 33,000  Level Oakland Center
Sun 12:06:49 PM 40.3961 -119.1367 45° Northeast 473 544 33,000  Level Oakland Center
Sun 12:07:50 PM 40.4908 -119.0133 45° Northeast 477 549 33,000  Level Oakland Center
Sun 12:08:52 PM 40.5850 -118.8908 45° Northeast 476 548 33,000  Level Oakland Center
Sun 12:09:53 PM 40.6792 -118.7675 45° Northeast 477 549 33,000  Level Oakland Center
Sun 12:10:16 PM 40.7228 -118.7119 44° Northeast 478 550 33,000  Level Salt Lake Center
Sun 12:11:18 PM 40.8133 -118.5928 45° Northeast 480 552 33,000  Level Salt Lake Center
Sun 12:12:20 PM 40.9208 -118.4522 45° Northeast 484 557 33,000  Level Salt Lake Center
Sun 12:13:22 PM 41.0119 -118.3314 45° Northeast 484 557 33,000  Level Salt Lake Center
Sun 12:14:24 PM 41.1178 -118.1903 45° Northeast 482 555 33,000  Level Salt Lake Center
Sun 12:15:26 PM 41.2083 -118.0686 45° Northeast 483 556 33,000  Level Salt Lake Center
Sun 12:16:28 PM 41.3000 -117.9472 45° Northeast 483 556 33,000  Level Salt Lake Center
Sun 12:17:30 PM 41.4056 -117.8044 45° Northeast 484 557 33,000  Level Salt Lake Center
Sun 12:18:32 PM 41.4972 -117.6811 45° Northeast 486 559 33,000  Level Salt Lake Center
Sun 12:19:34 PM 41.6011 -117.5369 46° Northeast 484 557 33,000  Level Salt Lake Center
Sun 12:20:36 PM 41.6925 -117.4125 45° Northeast 487 560 33,000  Level Salt Lake Center
Sun 12:21:38 PM 41.7981 -117.2633 46° Northeast 487 560 33,000  Level Salt Lake Center
Sun 12:22:40 PM 41.8886 -117.1392 46° Northeast 485 558 33,000  Level Salt Lake Center
Sun 12:23:42 PM 41.9933 -116.9928 46° Northeast 483 556 33,000  Level Salt Lake Center
Sun 12:24:44 PM 42.0828 -116.8656 47° Northeast 488 562 33,000  Level Salt Lake Center
Sun 12:25:46 PM 42.1728 -116.7397 46° Northeast 485 558 33,000  Level Salt Lake Center
Sun 12:26:48 PM 42.2758 -116.5967 46° Northeast 487 560 33,000  Level Salt Lake Center
Sun 12:27:50 PM 42.3806 -116.4483 46° Northeast 488 562 33,000  Level Salt Lake Center
Sun 12:28:52 PM 42.4711 -116.3192 46° Northeast 492 566 33,000  Level Salt Lake Center
Sun 12:29:54 PM 42.5753 -116.1703 46° Northeast 489 563 33,000  Level Salt Lake Center
Sun 12:30:56 PM 42.6653 -116.0414 46° Northeast 492 566 33,000  Level Salt Lake Center
Sun 12:31:58 PM 42.7542 -115.9133 47° Northeast 487 560 33,000  Level Salt Lake Center
Sun 12:33:00 PM 42.8583 -115.7622 47° Northeast 490 564 33,000  Level Salt Lake Center
Sun 12:34:02 PM 42.9469 -115.6328 47° Northeast 487 560 33,000  Level Salt Lake Center
Sun 12:35:04 PM 43.0506 -115.4817 47° Northeast 487 560 33,000  Level Salt Lake Center
Sun 12:36:06 PM 43.1397 -115.3522 47° Northeast 490 564 33,000  Level Salt Lake Center
Sun 12:37:08 PM 43.2428 -115.1997 47° Northeast 490 564 33,000  Level Salt Lake Center
Sun 12:38:10 PM 43.3308 -115.0703 47° Northeast 486 559 33,000  Level Salt Lake Center
Sun 12:39:12 PM 43.4328 -114.9169 47° Northeast 487 560 33,000  Level Salt Lake Center
Sun 12:40:15 PM 43.5208 -114.7850 47° Northeast 488 562 33,000  Level Salt Lake Center
Sun 12:41:17 PM 43.6236 -114.6300 47° Northeast 490 564 33,000  Level Salt Lake Center
Sun 12:42:19 PM 43.7114 -114.4972 48° Northeast 490 564 33,000  Level Salt Lake Center
Sun 12:43:21 PM 43.8136 -114.3417 48° Northeast 490 564 33,000  Level Salt Lake Center
Sun 12:44:23 PM 43.9019 -114.2081 47° Northeast 494 568 33,000  Level Salt Lake Center
Sun 12:45:25 PM 44.0036 -114.0508 48° Northeast 491 565 33,000  Level Salt Lake Center
Sun 12:46:27 PM 44.0933 -113.9117 48° Northeast 491 565 33,000  Level Salt Lake Center
Sun 12:47:29 PM 44.1781 -113.7750 49° Northeast 487 560 33,000  Level Salt Lake Center
Sun 12:48:31 PM 44.2803 -113.6167 48° Northeast 492 566 33,000  Level Salt Lake Center
Sun 12:49:33 PM 44.3658 -113.4800 49° Northeast 489 563 33,000  Level Salt Lake Center
Sun 12:50:35 PM 44.4697 -113.3203 48° Northeast 495 570 33,000  Level Salt Lake Center
Sun 12:51:37 PM 44.5556 -113.1842 48° Northeast 490 564 33,000  Level Salt Lake Center
Sun 12:52:39 PM 44.6547 -113.0228 49° Northeast 488 562 33,000 -48 Level Salt Lake Center
Sun 12:53:41 PM 44.7383 -112.8878 49° Northeast 480 552 32,900 -629 Descending Salt Lake Center
Sun 12:54:43 PM 44.8389 -112.7278 48° Northeast 487 560 31,700 -1,742 Descending Salt Lake Center
Sun 12:55:45 PM 44.9233 -112.5892 49° Northeast 486 559 29,300 -2,516 Descending Salt Lake Center
Sun 12:56:47 PM 45.0186 -112.4344 49° Northeast 466 536 26,500 -2,419 Descending Salt Lake Center
Sun 12:57:49 PM 45.0961 -112.3075 49° Northeast 449 517 24,300 -1,984 Descending Salt Lake Center
Sun 12:58:51 PM 45.1725 -112.1822 49° Northeast 441 507 22,400 -1,113 Descending Salt Lake Center
Sun 12:59:53 PM 45.2553 -112.0425 50° Northeast 443 510 22,000 -823 Descending Salt Lake Center
Sun 01:00:55 PM 45.3344 -111.9122 49° Northeast 439 505 20,700 -2,177 Descending Salt Lake Center
Sun 01:01:57 PM 45.4125 -111.7819 49° Northeast 435 501 17,500 -3,484 Descending Salt Lake Center
Sun 01:02:59 PM 45.5028 -111.6322 49° Northeast 420 483 13,500 -3,145 Descending Salt Lake Center
Sun 01:04:01 PM 45.5728 -111.5139 50° Northeast 405 466 11,000 -1,500 Descending Salt Lake Center
Sun 01:05:03 PM 45.6442 -111.4469 33° Northeast 343 395 10,400 -968 Descending Salt Lake Center
Sun 01:06:05 PM 45.7156 -111.3967 26° Northeast 305 351 9,000 -919 Descending Salt Lake Center
Sun 01:07:07 PM 45.7778 -111.3594 23° Northeast 265 305 8,500 -484 Descending Salt Lake Center

Login

Don't have an account? Register now (free) for customized features, flight alerts, and more!